createdAt,value
2016-09-06T00:00:50.152Z,-89
2016-09-06T00:01:50.087Z,-90
2016-09-06T00:02:50.035Z,-89
2016-09-06T00:03:49.912Z,-90
2016-09-06T00:04:50.177Z,-90
2016-09-06T00:05:49.931Z,-89
2016-09-06T00:06:50.051Z,-89
2016-09-06T00:07:50.189Z,-90
2016-09-06T00:08:50.067Z,-89
2016-09-06T00:09:50.043Z,-89
2016-09-06T00:10:50.065Z,-90
2016-09-06T00:11:49.951Z,-89
2016-09-06T00:12:50.315Z,-90
2016-09-06T00:13:50.183Z,-89
2016-09-06T00:14:50.190Z,-89
2016-09-06T00:15:50.142Z,-89
2016-09-06T00:16:50.071Z,-89
2016-09-06T00:17:50.198Z,-89
2016-09-06T00:18:50.058Z,-89
2016-09-06T00:19:50.326Z,-90
2016-09-06T00:20:50.229Z,-88
2016-09-06T00:21:50.193Z,-89
2016-09-06T00:22:50.185Z,-89
2016-09-06T00:23:50.203Z,-90
2016-09-06T00:24:50.068Z,-89
2016-09-06T00:25:50.119Z,-90
2016-09-06T00:26:50.179Z,-89
2016-09-06T00:27:50.068Z,-89
2016-09-06T00:28:50.075Z,-89
2016-09-06T00:29:50.223Z,-89
2016-09-06T00:30:50.325Z,-88
2016-09-06T00:31:49.945Z,-90
2016-09-06T00:32:50.109Z,-89
2016-09-06T00:33:50.186Z,-89
2016-09-06T00:34:50.326Z,-88
2016-09-06T00:35:50.043Z,-90
2016-09-06T00:36:50.236Z,-90
2016-09-06T00:37:50.092Z,-89
2016-09-06T00:38:50.053Z,-89
2016-09-06T00:39:50.103Z,-89
2016-09-06T00:40:50.127Z,-89
2016-09-06T00:41:50.193Z,-88
2016-09-06T00:42:49.983Z,-89
2016-09-06T00:43:50.258Z,-88
2016-09-06T00:44:50.080Z,-89
2016-09-06T00:45:50.049Z,-88
2016-09-06T00:46:50.355Z,-89
2016-09-06T00:47:50.196Z,-88
2016-09-06T00:48:50.117Z,-88
2016-09-06T00:49:50.213Z,-88
2016-09-06T00:50:50.117Z,-89
2016-09-06T00:51:50.010Z,-89
2016-09-06T00:52:50.216Z,-88
2016-09-06T00:53:50.111Z,-88
2016-09-06T00:54:49.941Z,-88
2016-09-06T00:55:50.189Z,-89
2016-09-06T00:56:50.143Z,-89
2016-09-06T00:57:50.267Z,-89
2016-09-06T00:58:50.220Z,-89
2016-09-06T00:59:50.262Z,-89
2016-09-06T01:00:50.113Z,-88
2016-09-06T01:01:50.225Z,-89
2016-09-06T01:02:50.367Z,-89
2016-09-06T01:03:50.220Z,-89
2016-09-06T01:04:50.107Z,-88
2016-09-06T01:05:50.221Z,-88
2016-09-06T01:06:50.223Z,-89
2016-09-06T01:07:50.153Z,-89
2016-09-06T01:08:50.131Z,-89
2016-09-06T01:09:49.969Z,-88
2016-09-06T01:10:50.384Z,-88
2016-09-06T01:11:50.142Z,-88
2016-09-06T01:12:50.269Z,-88
2016-09-06T01:13:50.370Z,-89
2016-09-06T01:14:49.949Z,-88
2016-09-06T01:15:50.589Z,-88
2016-09-06T01:16:50.365Z,-88
2016-09-06T01:17:50.110Z,-88
2016-09-06T01:18:50.183Z,-88
2016-09-06T01:19:50.055Z,-88
2016-09-06T01:20:50.396Z,-89
2016-09-06T01:21:50.269Z,-89
2016-09-06T01:22:50.098Z,-89
2016-09-06T01:23:50.283Z,-89
2016-09-06T01:24:50.398Z,-89
2016-09-06T01:25:50.094Z,-89
2016-09-06T01:26:51.202Z,-90
2016-09-06T01:27:50.134Z,-90
2016-09-06T01:28:50.271Z,-89
2016-09-06T01:29:50.105Z,-90
2016-09-06T01:30:50.270Z,-89
2016-09-06T01:31:50.157Z,-90
2016-09-06T01:32:49.969Z,-90
2016-09-06T01:33:50.161Z,-90
2016-09-06T01:34:50.390Z,-89
2016-09-06T01:35:50.174Z,-89
2016-09-06T01:36:50.164Z,-90
2016-09-06T01:37:50.281Z,-89
2016-09-06T01:38:50.413Z,-90
2016-09-06T01:39:50.023Z,-89
2016-09-06T01:40:50.122Z,-90
2016-09-06T01:41:50.301Z,-90
2016-09-06T01:42:50.160Z,-90
2016-09-06T01:43:50.008Z,-89
2016-09-06T01:44:50.322Z,-90
2016-09-06T01:45:50.263Z,-90
2016-09-06T01:46:50.275Z,-90
2016-09-06T01:47:50.412Z,-90
2016-09-06T01:48:50.182Z,-89
2016-09-06T01:49:50.020Z,-90
2016-09-06T01:50:50.320Z,-89
2016-09-06T01:51:50.169Z,-90
2016-09-06T01:52:50.810Z,-90
2016-09-06T01:53:50.300Z,-89
2016-09-06T01:54:50.103Z,-89
2016-09-06T01:55:50.058Z,-90
2016-09-06T01:56:50.249Z,-90
2016-09-06T01:57:50.290Z,-89
2016-09-06T01:58:50.156Z,-90
2016-09-06T01:59:50.247Z,-89
2016-09-06T02:00:50.212Z,-90
2016-09-06T02:01:50.015Z,-89
2016-09-06T02:02:50.183Z,-89
2016-09-06T02:03:50.310Z,-89
2016-09-06T02:04:50.344Z,-90
2016-09-06T02:05:50.310Z,-89
2016-09-06T02:06:50.446Z,-90
2016-09-06T02:07:50.326Z,-90
2016-09-06T02:08:50.334Z,-90
2016-09-06T02:09:50.190Z,-89
2016-09-06T02:10:50.155Z,-90
2016-09-06T02:11:50.313Z,-89
2016-09-06T02:12:50.130Z,-89
2016-09-06T02:13:50.441Z,-90
2016-09-06T02:14:50.327Z,-90
2016-09-06T02:15:50.331Z,-88
2016-09-06T02:16:50.333Z,-87
2016-09-06T02:17:50.242Z,-87
2016-09-06T02:18:50.175Z,-87
2016-09-06T02:19:50.456Z,-87
2016-09-06T02:20:50.115Z,-87
2016-09-06T02:21:50.326Z,-87
2016-09-06T02:22:50.371Z,-87
2016-09-06T02:23:50.065Z,-87
2016-09-06T02:24:50.333Z,-87
2016-09-06T02:25:50.469Z,-88
2016-09-06T02:26:50.258Z,-87
2016-09-06T02:27:50.136Z,-87
2016-09-06T02:28:50.355Z,-87
2016-09-06T02:29:50.397Z,-88
2016-09-06T02:30:50.377Z,-87
2016-09-06T02:31:50.353Z,-87
2016-09-06T02:32:50.222Z,-87
2016-09-06T02:33:50.238Z,-87
2016-09-06T02:34:50.330Z,-87
2016-09-06T02:35:50.364Z,-87
2016-09-06T02:36:50.255Z,-87
2016-09-06T02:37:50.381Z,-87
2016-09-06T02:38:50.212Z,-88
2016-09-06T02:39:50.238Z,-87
2016-09-06T02:40:50.357Z,-87
2016-09-06T02:41:50.332Z,-88
2016-09-06T02:42:50.085Z,-87
2016-09-06T02:43:50.428Z,-87
2016-09-06T02:44:50.234Z,-88
2016-09-06T02:45:50.145Z,-87
2016-09-06T02:46:50.291Z,-87
2016-09-06T02:47:50.261Z,-87
2016-09-06T02:48:50.343Z,-87
2016-09-06T02:49:50.275Z,-87
2016-09-06T02:50:50.230Z,-87
2016-09-06T02:51:50.379Z,-87
2016-09-06T02:52:50.490Z,-87
2016-09-06T02:53:50.134Z,-87
2016-09-06T02:54:50.378Z,-88
2016-09-06T02:55:50.282Z,-88
2016-09-06T02:56:50.402Z,-87
2016-09-06T02:57:50.155Z,-87
2016-09-06T02:58:50.358Z,-87
2016-09-06T02:59:50.168Z,-87
2016-09-06T03:00:50.120Z,-87
2016-09-06T03:01:50.358Z,-87
2016-09-06T03:02:50.401Z,-87
2016-09-06T03:03:50.523Z,-87
2016-09-06T03:04:50.218Z,-86
2016-09-06T03:05:50.130Z,-88
2016-09-06T03:06:50.406Z,-87
2016-09-06T03:07:50.399Z,-87
2016-09-06T03:08:50.280Z,-87
2016-09-06T03:09:50.306Z,-87
2016-09-06T03:10:50.246Z,-87
2016-09-06T03:11:50.516Z,-87
2016-09-06T03:12:50.274Z,-87
2016-09-06T03:13:50.381Z,-87
2016-09-06T03:14:50.147Z,-88
2016-09-06T03:15:50.290Z,-87
2016-09-06T03:16:50.496Z,-88
2016-09-06T03:17:50.385Z,-87
2016-09-06T03:18:50.419Z,-87
2016-09-06T03:19:50.530Z,-87
2016-09-06T03:20:50.271Z,-87
2016-09-06T03:21:50.312Z,-87
2016-09-06T03:22:50.295Z,-87
2016-09-06T03:23:50.332Z,-87
2016-09-06T03:24:50.143Z,-87
2016-09-06T03:25:50.541Z,-87
2016-09-06T03:26:50.167Z,-87
2016-09-06T03:27:50.186Z,-87
2016-09-06T03:28:50.285Z,-87
2016-09-06T03:29:50.393Z,-87
2016-09-06T03:30:50.401Z,-87
2016-09-06T03:31:50.165Z,-88
2016-09-06T03:32:50.396Z,-87
2016-09-06T03:33:50.303Z,-87
2016-09-06T03:34:50.544Z,-87
2016-09-06T03:35:50.430Z,-87
2016-09-06T03:36:50.299Z,-87
2016-09-06T03:37:50.298Z,-87
2016-09-06T03:38:50.343Z,-87
2016-09-06T03:39:50.305Z,-87
2016-09-06T03:40:50.468Z,-87
2016-09-06T03:41:50.465Z,-87
2016-09-06T03:42:50.313Z,-87
2016-09-06T03:43:50.326Z,-86
2016-09-06T03:44:50.417Z,-86
2016-09-06T03:45:50.302Z,-86
2016-09-06T03:46:50.413Z,-87
2016-09-06T03:47:50.276Z,-87
2016-09-06T03:48:50.577Z,-87
2016-09-06T03:49:50.476Z,-87
2016-09-06T03:50:50.471Z,-87
2016-09-06T03:51:50.573Z,-87
2016-09-06T03:52:50.587Z,-87
2016-09-06T03:53:50.426Z,-87
2016-09-06T03:54:50.369Z,-86
2016-09-06T03:55:50.469Z,-86
2016-09-06T03:56:50.189Z,-88
2016-09-06T03:57:50.433Z,-88
2016-09-06T03:58:50.436Z,-87
2016-09-06T03:59:50.216Z,-87
2016-09-06T04:00:50.397Z,-87
2016-09-06T04:01:50.486Z,-87
2016-09-06T04:02:50.448Z,-87
2016-09-06T04:03:50.479Z,-87
2016-09-06T04:04:50.477Z,-87
2016-09-06T04:05:50.339Z,-87
2016-09-06T04:06:50.441Z,-87
2016-09-06T04:07:50.151Z,-87
2016-09-06T04:08:50.358Z,-87
2016-09-06T04:09:50.220Z,-87
2016-09-06T04:10:50.376Z,-87
2016-09-06T04:11:50.365Z,-87
2016-09-06T04:12:50.456Z,-86
2016-09-06T04:13:50.627Z,-87
2016-09-06T04:14:50.447Z,-86
2016-09-06T04:15:50.426Z,-87
2016-09-06T04:16:50.426Z,-87
2016-09-06T04:17:50.350Z,-86
2016-09-06T04:18:50.372Z,-87
2016-09-06T04:19:50.512Z,-87
2016-09-06T04:20:50.548Z,-87
2016-09-06T04:21:50.245Z,-87
2016-09-06T04:22:50.385Z,-87
2016-09-06T04:23:50.365Z,-86
2016-09-06T04:24:50.525Z,-86
2016-09-06T04:25:50.490Z,-87
2016-09-06T04:26:50.381Z,-86
2016-09-06T04:27:50.487Z,-88
2016-09-06T04:28:50.401Z,-87
2016-09-06T04:29:50.497Z,-87
2016-09-06T04:30:50.393Z,-86
2016-09-06T04:31:50.486Z,-87
2016-09-06T04:32:50.406Z,-86
2016-09-06T04:33:50.414Z,-87
2016-09-06T04:34:50.564Z,-87
2016-09-06T04:35:50.259Z,-86
2016-09-06T04:36:50.643Z,-87
2016-09-06T04:37:50.542Z,-86
2016-09-06T04:38:50.233Z,-86
2016-09-06T04:39:50.252Z,-86
2016-09-06T04:40:50.520Z,-87
2016-09-06T04:41:50.495Z,-86
2016-09-06T04:42:50.383Z,-87
2016-09-06T04:43:50.562Z,-86
2016-09-06T04:44:50.393Z,-86
2016-09-06T04:45:50.395Z,-86
2016-09-06T04:46:50.369Z,-87
2016-09-06T04:47:50.370Z,-87
2016-09-06T04:48:50.400Z,-87
2016-09-06T04:49:50.326Z,-86
2016-09-06T04:50:50.513Z,-86
2016-09-06T04:51:50.641Z,-87
2016-09-06T04:52:50.560Z,-87
2016-09-06T04:53:50.638Z,-86
2016-09-06T04:54:50.562Z,-85
2016-09-06T04:55:50.492Z,-87
2016-09-06T04:56:50.537Z,-86
2016-09-06T04:57:50.465Z,-86
2016-09-06T04:58:50.486Z,-86
2016-09-06T04:59:50.573Z,-86
2016-09-06T05:00:50.597Z,-86
2016-09-06T05:01:50.415Z,-87
2016-09-06T05:02:50.514Z,-87
2016-09-06T05:03:50.298Z,-86
2016-09-06T05:04:50.560Z,-87
2016-09-06T05:05:50.344Z,-87
2016-09-06T05:06:50.453Z,-86
2016-09-06T05:07:50.391Z,-87
2016-09-06T05:08:50.394Z,-87
2016-09-06T05:09:50.427Z,-86
2016-09-06T05:10:50.393Z,-86
2016-09-06T05:11:50.571Z,-86
2016-09-06T05:12:50.543Z,-86
2016-09-06T05:13:50.567Z,-87
2016-09-06T05:14:50.565Z,-87
2016-09-06T05:15:50.372Z,-87
2016-09-06T05:16:50.678Z,-87
2016-09-06T05:17:50.586Z,-86
2016-09-06T05:18:50.613Z,-86
2016-09-06T05:19:50.675Z,-86
2016-09-06T05:20:50.565Z,-87
2016-09-06T05:21:50.547Z,-87
2016-09-06T05:22:50.592Z,-86
2016-09-06T05:23:50.700Z,-88
2016-09-06T05:24:50.314Z,-87
2016-09-06T05:25:50.429Z,-87
2016-09-06T05:26:50.583Z,-87
2016-09-06T05:27:50.299Z,-87
2016-09-06T05:28:50.439Z,-86
2016-09-06T05:29:50.708Z,-86
2016-09-06T05:30:50.703Z,-86
2016-09-06T05:31:50.477Z,-86
2016-09-06T05:32:50.421Z,-87
2016-09-06T05:33:50.448Z,-87
2016-09-06T05:34:50.496Z,-87
2016-09-06T05:35:50.600Z,-87
2016-09-06T05:36:50.597Z,-88
2016-09-06T05:37:50.381Z,-87
2016-09-06T05:38:50.703Z,-87
2016-09-06T05:39:50.602Z,-87
2016-09-06T05:40:50.328Z,-88
2016-09-06T05:41:50.311Z,-87
2016-09-06T05:42:50.700Z,-87
2016-09-06T05:43:50.626Z,-88
2016-09-06T05:44:50.574Z,-88
2016-09-06T05:45:50.565Z,-87
2016-09-06T05:46:50.633Z,-88
2016-09-06T05:47:50.448Z,-87
2016-09-06T05:48:50.719Z,-88
2016-09-06T05:49:50.487Z,-88
2016-09-06T05:50:50.598Z,-88
2016-09-06T05:51:50.503Z,-88
2016-09-06T05:52:50.470Z,-89
2016-09-06T05:53:50.468Z,-88
2016-09-06T05:54:50.647Z,-88
2016-09-06T05:55:50.749Z,-89
2016-09-06T05:56:50.614Z,-89
2016-09-06T05:57:50.630Z,-90
2016-09-06T05:58:50.552Z,-89
2016-09-06T05:59:50.509Z,-89
2016-09-06T06:00:50.524Z,-89
2016-09-06T06:01:50.527Z,-90
2016-09-06T06:02:50.438Z,-85
2016-09-06T06:03:50.630Z,-86
2016-09-06T06:04:50.499Z,-86
2016-09-06T06:05:50.618Z,-86
2016-09-06T06:06:50.661Z,-86
2016-09-06T06:07:50.762Z,-86
2016-09-06T06:08:50.541Z,-85
2016-09-06T06:09:50.560Z,-87
2016-09-06T06:10:50.681Z,-86
2016-09-06T06:11:50.521Z,-86
2016-09-06T06:12:50.772Z,-86
2016-09-06T06:13:50.450Z,-86
2016-09-06T06:14:50.620Z,-86
2016-09-06T06:15:50.525Z,-87
2016-09-06T06:16:50.634Z,-86
2016-09-06T06:17:50.659Z,-86
2016-09-06T06:18:50.753Z,-86
2016-09-06T06:19:50.527Z,-86
2016-09-06T06:20:50.652Z,-87
2016-09-06T06:21:50.643Z,-86
2016-09-06T06:22:50.517Z,-87
2016-09-06T06:23:50.687Z,-86
2016-09-06T06:24:50.730Z,-87
2016-09-06T06:25:50.619Z,-87
2016-09-06T06:26:50.485Z,-86
2016-09-06T06:27:50.536Z,-86
2016-09-06T06:28:50.705Z,-86
2016-09-06T06:29:50.651Z,-87
2016-09-06T06:30:50.547Z,-87
2016-09-06T06:31:50.817Z,-87
2016-09-06T06:32:50.803Z,-86
2016-09-06T06:33:50.549Z,-86
2016-09-06T06:34:50.538Z,-87
2016-09-06T06:35:50.629Z,-86
2016-09-06T06:36:50.532Z,-87
2016-09-06T06:37:50.695Z,-87
2016-09-06T06:38:50.697Z,-87
2016-09-06T06:39:50.798Z,-87
2016-09-06T06:40:50.550Z,-87
2016-09-06T06:41:50.486Z,-86
2016-09-06T06:42:50.561Z,-87
2016-09-06T06:43:50.619Z,-86
2016-09-06T06:44:50.575Z,-86
2016-09-06T06:45:50.704Z,-86
2016-09-06T06:46:50.663Z,-86
2016-09-06T06:47:50.884Z,-86
2016-09-06T06:48:50.682Z,-86
2016-09-06T06:49:50.716Z,-86
2016-09-06T06:50:50.652Z,-85
2016-09-06T06:51:50.565Z,-85
2016-09-06T06:52:50.535Z,-85
2016-09-06T06:53:50.524Z,-86
2016-09-06T06:54:50.721Z,-85
2016-09-06T06:55:50.621Z,-86
2016-09-06T06:56:50.446Z,-86
2016-09-06T06:57:50.589Z,-86
2016-09-06T06:58:50.878Z,-86
2016-09-06T06:59:50.751Z,-85
2016-09-06T07:00:50.677Z,-86
2016-09-06T07:01:50.587Z,-85
2016-09-06T07:02:50.694Z,-85
2016-09-06T07:03:50.716Z,-84
2016-09-06T07:04:50.640Z,-85
2016-09-06T07:05:50.523Z,-84
2016-09-06T07:06:50.620Z,-84
2016-09-06T07:07:50.589Z,-82
2016-09-06T07:08:50.572Z,-83
2016-09-06T07:09:50.729Z,-83
2016-09-06T07:10:50.822Z,-83
2016-09-06T07:11:50.725Z,-83
2016-09-06T07:12:50.478Z,-84
2016-09-06T07:13:50.640Z,-84
2016-09-06T07:14:50.586Z,-83
2016-09-06T07:15:50.884Z,-83
2016-09-06T07:16:50.715Z,-83
2016-09-06T07:17:50.621Z,-83
2016-09-06T07:18:50.574Z,-83
2016-09-06T07:19:50.631Z,-83
2016-09-06T07:20:50.611Z,-83
2016-09-06T07:21:50.565Z,-83
2016-09-06T07:22:50.844Z,-83
2016-09-06T07:23:50.575Z,-83
2016-09-06T07:24:50.878Z,-83
2016-09-06T07:25:50.646Z,-82
2016-09-06T07:26:50.873Z,-83
2016-09-06T07:27:51.729Z,-83
2016-09-06T07:28:52.011Z,-84
2016-09-06T07:29:52.200Z,-83
2016-09-06T07:30:51.750Z,-83
2016-09-06T07:31:50.790Z,-83
2016-09-06T07:32:50.677Z,-83
2016-09-06T07:33:50.735Z,-83
2016-09-06T07:34:50.668Z,-84
2016-09-06T07:35:50.765Z,-83
2016-09-06T07:36:50.520Z,-83
2016-09-06T07:37:50.550Z,-84
2016-09-06T07:38:50.860Z,-84
2016-09-06T07:39:50.692Z,-84
2016-09-06T07:40:50.932Z,-84
2016-09-06T07:41:50.783Z,-84
2016-09-06T07:42:52.326Z,-84
2016-09-06T07:43:52.421Z,-84
2016-09-06T07:44:53.347Z,-84
2016-09-06T07:45:51.448Z,-84
2016-09-06T07:46:52.322Z,-84
2016-09-06T07:47:52.402Z,-84
2016-09-06T07:48:52.262Z,-83
2016-09-06T07:49:52.160Z,-83
2016-09-06T07:50:52.422Z,-83
2016-09-06T07:51:52.424Z,-83
2016-09-06T07:52:52.009Z,-83
2016-09-06T07:53:52.146Z,-83
2016-09-06T07:54:52.155Z,-84
2016-09-06T07:55:52.075Z,-83
2016-09-06T07:56:52.381Z,-83
2016-09-06T07:57:50.691Z,-84
2016-09-06T07:58:50.636Z,-84
2016-09-06T07:59:50.798Z,-84
2016-09-06T08:00:50.923Z,-83
2016-09-06T08:01:58.523Z,-85
2016-09-06T08:02:50.887Z,-84
2016-09-06T08:03:50.838Z,-85
2016-09-06T08:04:50.854Z,-84
2016-09-06T08:05:50.610Z,-84
2016-09-06T08:06:50.614Z,-84
2016-09-06T08:07:51.019Z,-84
2016-09-06T08:08:50.578Z,-84
2016-09-06T08:09:50.791Z,-84
2016-09-06T08:10:50.993Z,-85
2016-09-06T08:11:50.958Z,-84
2016-09-06T08:12:50.823Z,-84
2016-09-06T08:13:50.780Z,-85
2016-09-06T08:14:50.837Z,-85
2016-09-06T08:15:50.783Z,-84
2016-09-06T08:16:50.661Z,-85
2016-09-06T08:17:50.897Z,-85
2016-09-06T08:18:50.798Z,-84
2016-09-06T08:19:50.688Z,-85
2016-09-06T08:20:50.803Z,-85
2016-09-06T08:21:50.643Z,-84
2016-09-06T08:22:50.715Z,-84
2016-09-06T08:23:50.745Z,-85
2016-09-06T08:24:50.755Z,-84
2016-09-06T08:25:50.672Z,-85
2016-09-06T08:26:51.357Z,-83
2016-09-06T08:27:50.974Z,-84
2016-09-06T08:28:50.854Z,-83
2016-09-06T08:29:50.606Z,-84
2016-09-06T08:30:50.718Z,-85
2016-09-06T08:31:50.650Z,-85
2016-09-06T08:32:50.592Z,-85
2016-09-06T08:33:54.558Z,-85
2016-09-06T08:34:52.185Z,-85
2016-09-06T08:35:50.756Z,-86
2016-09-06T08:36:50.972Z,-85
2016-09-06T08:37:50.886Z,-85
2016-09-06T08:38:53.601Z,-85
2016-09-06T08:39:50.734Z,-86
2016-09-06T08:40:50.902Z,-86
2016-09-06T08:41:50.674Z,-86
2016-09-06T08:42:50.699Z,-86
2016-09-06T08:43:50.863Z,-86
2016-09-06T08:44:50.831Z,-85
2016-09-06T08:45:52.903Z,-85
2016-09-06T08:46:54.360Z,-86
2016-09-06T08:47:50.942Z,-87
2016-09-06T08:48:50.689Z,-86
2016-09-06T08:49:50.797Z,-86
2016-09-06T08:50:50.727Z,-86
2016-09-06T08:51:51.052Z,-86
2016-09-06T08:52:50.963Z,-85
2016-09-06T08:53:51.025Z,-85
2016-09-06T08:54:50.877Z,-86
2016-09-06T08:55:50.831Z,-86
2016-09-06T08:56:50.694Z,-85
2016-09-06T08:57:50.885Z,-85
2016-09-06T08:58:50.655Z,-85
2016-09-06T08:59:50.971Z,-85
2016-09-06T09:00:50.880Z,-86
2016-09-06T09:01:50.672Z,-86
2016-09-06T09:02:50.747Z,-86
2016-09-06T09:03:50.897Z,-86
2016-09-06T09:04:50.903Z,-85
2016-09-06T09:05:50.806Z,-85
2016-09-06T09:06:50.952Z,-85
2016-09-06T09:07:50.972Z,-85
2016-09-06T09:08:50.930Z,-86
2016-09-06T09:09:50.759Z,-85
2016-09-06T09:10:50.976Z,-86
2016-09-06T09:11:50.946Z,-86
2016-09-06T09:12:52.203Z,-85
2016-09-06T09:13:53.334Z,-85
2016-09-06T09:14:51.069Z,-86
2016-09-06T09:15:50.959Z,-85
2016-09-06T09:16:50.955Z,-85
2016-09-06T09:17:50.719Z,-84
2016-09-06T09:18:51.300Z,-84
2016-09-06T09:19:51.380Z,-84
2016-09-06T09:20:50.910Z,-85
2016-09-06T09:21:50.934Z,-85
2016-09-06T09:22:50.682Z,-85
2016-09-06T09:23:50.922Z,-85
2016-09-06T09:24:50.929Z,-85
2016-09-06T09:25:50.685Z,-85
2016-09-06T09:26:50.742Z,-85
2016-09-06T09:27:51.244Z,-86
2016-09-06T09:28:51.309Z,-84
2016-09-06T09:29:51.743Z,-84
2016-09-06T09:30:51.045Z,-85
2016-09-06T09:31:51.057Z,-85
2016-09-06T09:32:50.908Z,-83
2016-09-06T09:33:51.354Z,-84
2016-09-06T09:34:51.958Z,-85
2016-09-06T09:35:51.480Z,-85
2016-09-06T09:36:50.964Z,-85
2016-09-06T09:37:51.866Z,-85
2016-09-06T09:38:50.883Z,-85
2016-09-06T09:39:50.953Z,-85
2016-09-06T09:41:50.863Z,-85
2016-09-06T09:42:51.240Z,-84
2016-09-06T09:43:50.944Z,-85
2016-09-06T09:44:51.001Z,-86
2016-09-06T09:45:51.110Z,-85
2016-09-06T09:46:51.150Z,-86
2016-09-06T09:47:51.078Z,-85
2016-09-06T09:48:51.012Z,-85
2016-09-06T09:49:51.008Z,-85
2016-09-06T09:50:50.990Z,-86
2016-09-06T09:51:51.027Z,-86
2016-09-06T09:52:50.999Z,-85
2016-09-06T09:53:50.890Z,-86
2016-09-06T09:54:50.938Z,-86
2016-09-06T09:55:50.826Z,-86
2016-09-06T09:56:50.798Z,-86
2016-09-06T09:57:50.995Z,-86
2016-09-06T09:58:50.918Z,-86
2016-09-06T09:59:51.057Z,-85
2016-09-06T10:00:50.766Z,-86
2016-09-06T10:01:50.819Z,-86
2016-09-06T10:02:50.912Z,-85
2016-09-06T10:03:51.061Z,-85
2016-09-06T10:04:50.889Z,-86
2016-09-06T10:05:50.921Z,-86
2016-09-06T10:06:51.119Z,-85
2016-09-06T10:07:50.987Z,-86
2016-09-06T10:08:50.883Z,-86
2016-09-06T10:09:51.065Z,-87
2016-09-06T10:10:50.968Z,-86
2016-09-06T10:11:51.029Z,-86
2016-09-06T10:12:50.890Z,-87
2016-09-06T10:13:51.004Z,-86
2016-09-06T10:14:50.869Z,-86
2016-09-06T10:15:51.216Z,-86
2016-09-06T10:16:51.106Z,-86
2016-09-06T10:17:50.789Z,-87
2016-09-06T10:18:51.178Z,-87
2016-09-06T10:19:51.050Z,-86
2016-09-06T10:20:50.963Z,-86
2016-09-06T10:21:51.066Z,-86
2016-09-06T10:22:50.925Z,-87
2016-09-06T10:23:50.955Z,-86
2016-09-06T10:24:50.902Z,-86
2016-09-06T10:25:51.755Z,-86
2016-09-06T10:26:51.032Z,-86
2016-09-06T10:27:50.930Z,-85
2016-09-06T10:28:51.060Z,-85
2016-09-06T10:29:51.009Z,-85
2016-09-06T10:30:50.955Z,-86
2016-09-06T10:31:50.980Z,-85
2016-09-06T10:32:50.937Z,-86
2016-09-06T10:33:50.821Z,-86
2016-09-06T10:34:50.959Z,-86
2016-09-06T10:35:51.432Z,-87
2016-09-06T10:36:51.080Z,-87
2016-09-06T10:37:51.151Z,-87
2016-09-06T10:38:52.989Z,-86
2016-09-06T10:39:51.217Z,-86
2016-09-06T10:40:52.695Z,-87
2016-09-06T10:41:51.517Z,-87
2016-09-06T10:42:52.580Z,-87
2016-09-06T10:43:51.392Z,-87
2016-09-06T10:44:50.922Z,-87
2016-09-06T10:45:50.890Z,-86
2016-09-06T10:46:50.935Z,-86
2016-09-06T10:47:50.984Z,-86
2016-09-06T10:48:51.095Z,-86
2016-09-06T10:49:50.968Z,-86
2016-09-06T10:50:51.189Z,-85
2016-09-06T10:51:50.955Z,-85
2016-09-06T10:52:50.985Z,-85
2016-09-06T10:53:51.111Z,-86
2016-09-06T10:54:51.173Z,-86
2016-09-06T10:55:51.126Z,-87
2016-09-06T10:56:50.962Z,-86
2016-09-06T10:57:51.278Z,-86
2016-09-06T10:58:51.104Z,-86
2016-09-06T10:59:50.967Z,-85
2016-09-06T11:00:50.906Z,-86
2016-09-06T11:01:50.966Z,-85
2016-09-06T11:02:50.966Z,-85
2016-09-06T11:03:51.209Z,-85
2016-09-06T11:04:50.852Z,-85
2016-09-06T11:05:51.003Z,-86
2016-09-06T11:06:51.016Z,-85
2016-09-06T11:07:51.820Z,-85
2016-09-06T11:08:51.163Z,-84
2016-09-06T11:09:50.880Z,-85
2016-09-06T11:10:51.220Z,-87
2016-09-06T11:11:50.983Z,-87
2016-09-06T11:12:51.131Z,-87
2016-09-06T11:13:51.021Z,-87
2016-09-06T11:14:51.387Z,-86
2016-09-06T11:15:51.084Z,-86
2016-09-06T11:16:50.997Z,-86
2016-09-06T11:17:50.964Z,-85
2016-09-06T11:18:51.000Z,-85
2016-09-06T11:19:50.983Z,-85
2016-09-06T11:20:50.913Z,-86
2016-09-06T11:21:51.085Z,-86
2016-09-06T11:22:51.027Z,-85
2016-09-06T11:23:51.158Z,-85
2016-09-06T11:24:51.178Z,-84
2016-09-06T11:25:51.171Z,-85
2016-09-06T11:26:51.182Z,-85
2016-09-06T11:27:51.697Z,-85
2016-09-06T11:28:50.988Z,-84
2016-09-06T11:29:51.567Z,-85
2016-09-06T11:30:51.064Z,-84
2016-09-06T11:31:51.146Z,-85
2016-09-06T11:32:50.967Z,-84
2016-09-06T11:33:51.646Z,-84
2016-09-06T11:34:51.160Z,-85
2016-09-06T11:35:50.983Z,-86
2016-09-06T11:36:50.855Z,-85
2016-09-06T11:37:51.026Z,-85
2016-09-06T11:38:51.032Z,-85
2016-09-06T11:39:51.262Z,-85
2016-09-06T11:40:52.657Z,-84
2016-09-06T11:41:51.142Z,-84
2016-09-06T11:42:51.156Z,-85
2016-09-06T11:43:51.041Z,-85
2016-09-06T11:44:50.902Z,-86
2016-09-06T11:45:50.904Z,-84
2016-09-06T11:46:51.893Z,-85
2016-09-06T11:47:51.209Z,-86
2016-09-06T11:48:51.044Z,-84
2016-09-06T11:49:51.111Z,-85
2016-09-06T11:50:51.095Z,-86
2016-09-06T11:51:51.194Z,-85
2016-09-06T11:52:51.093Z,-86
2016-09-06T11:53:51.207Z,-85
2016-09-06T11:54:51.297Z,-85
2016-09-06T11:55:51.157Z,-85
2016-09-06T11:56:51.293Z,-85
2016-09-06T11:57:51.055Z,-85
2016-09-06T11:58:51.050Z,-85
2016-09-06T11:59:51.025Z,-85
2016-09-06T12:00:51.345Z,-86
2016-09-06T12:01:51.096Z,-86
2016-09-06T12:02:51.329Z,-87
2016-09-06T12:03:51.023Z,-84
2016-09-06T12:04:51.192Z,-87
2016-09-06T12:05:51.457Z,-86
2016-09-06T12:06:51.233Z,-86
2016-09-06T12:07:51.095Z,-86
2016-09-06T12:08:50.919Z,-86
2016-09-06T12:09:50.960Z,-85
2016-09-06T12:10:51.250Z,-85
2016-09-06T12:11:51.094Z,-85
2016-09-06T12:12:51.334Z,-86
2016-09-06T12:13:51.079Z,-85
2016-09-06T12:14:51.099Z,-85
2016-09-06T12:15:51.241Z,-85
2016-09-06T12:16:51.332Z,-84
2016-09-06T12:17:51.335Z,-85
2016-09-06T12:18:51.112Z,-85
2016-09-06T12:19:51.300Z,-85
2016-09-06T12:20:51.440Z,-86
2016-09-06T12:21:51.077Z,-84
2016-09-06T12:22:51.315Z,-84
2016-09-06T12:23:51.171Z,-84
2016-09-06T12:24:51.245Z,-84
2016-09-06T12:25:51.114Z,-84
2016-09-06T12:26:51.048Z,-84
2016-09-06T12:27:51.007Z,-84
2016-09-06T12:28:51.393Z,-85
2016-09-06T12:29:51.260Z,-85
2016-09-06T12:30:51.219Z,-85
2016-09-06T12:31:51.011Z,-85
2016-09-06T12:32:51.011Z,-84
2016-09-06T12:33:51.149Z,-84
2016-09-06T12:34:51.258Z,-84
2016-09-06T12:35:51.226Z,-84
2016-09-06T12:36:51.056Z,-85
2016-09-06T12:37:51.258Z,-85
2016-09-06T12:38:51.266Z,-85
2016-09-06T12:39:51.023Z,-86
2016-09-06T12:40:51.389Z,-85
2016-09-06T12:41:51.211Z,-86
2016-09-06T12:42:51.141Z,-83
2016-09-06T12:43:51.216Z,-83
2016-09-06T12:44:51.232Z,-84
2016-09-06T12:45:51.127Z,-84
2016-09-06T12:46:51.289Z,-83
2016-09-06T12:47:51.427Z,-83
2016-09-06T12:48:51.242Z,-82
2016-09-06T12:49:51.118Z,-84
2016-09-06T12:50:51.337Z,-84
2016-09-06T12:51:51.285Z,-83
2016-09-06T12:52:51.124Z,-84
2016-09-06T12:53:51.266Z,-84
2016-09-06T12:54:51.058Z,-84
2016-09-06T12:55:51.003Z,-84
2016-09-06T12:56:51.163Z,-83
2016-09-06T12:57:51.049Z,-83
2016-09-06T12:58:51.236Z,-84
2016-09-06T12:59:51.237Z,-83
2016-09-06T13:00:51.249Z,-84
2016-09-06T13:01:51.055Z,-83
2016-09-06T13:02:51.178Z,-83
2016-09-06T13:03:51.167Z,-82
2016-09-06T13:04:51.132Z,-83
2016-09-06T13:05:51.010Z,-82
2016-09-06T13:06:51.167Z,-84
2016-09-06T13:07:51.318Z,-84
2016-09-06T13:08:51.393Z,-84
2016-09-06T13:09:51.332Z,-84
2016-09-06T13:10:51.181Z,-83
2016-09-06T13:11:51.013Z,-83
2016-09-06T13:12:51.136Z,-83
2016-09-06T13:13:51.424Z,-83
2016-09-06T13:14:51.107Z,-84
2016-09-06T13:15:51.281Z,-83
2016-09-06T13:16:51.018Z,-82
2016-09-06T13:17:51.192Z,-83
2016-09-06T13:18:51.417Z,-83
2016-09-06T13:19:51.424Z,-84
2016-09-06T13:20:51.121Z,-83
2016-09-06T13:21:51.309Z,-84
2016-09-06T13:22:51.227Z,-83
2016-09-06T13:23:51.366Z,-82
2016-09-06T13:24:51.295Z,-83
2016-09-06T13:25:51.219Z,-83
2016-09-06T13:26:51.320Z,-84
2016-09-06T13:27:51.358Z,-83
2016-09-06T13:28:51.389Z,-83
2016-09-06T13:29:51.252Z,-83
2016-09-06T13:30:51.168Z,-83
2016-09-06T13:31:51.258Z,-83
2016-09-06T13:32:51.392Z,-82
2016-09-06T13:33:51.451Z,-83
2016-09-06T13:34:51.368Z,-83
2016-09-06T13:35:51.325Z,-84
2016-09-06T13:36:51.138Z,-84
2016-09-06T13:37:51.594Z,-83
2016-09-06T13:38:51.331Z,-85
2016-09-06T13:39:51.205Z,-84
2016-09-06T13:40:51.670Z,-84
2016-09-06T13:41:51.180Z,-85
2016-09-06T13:42:51.447Z,-85
2016-09-06T13:43:51.223Z,-85
2016-09-06T13:44:51.329Z,-85
2016-09-06T13:45:51.332Z,-85
2016-09-06T13:46:51.359Z,-86
2016-09-06T13:47:51.284Z,-85